Time;durP1;ratioP1;P1;durP2;ratioP2;P2;SDS_P1;SDS_P2;PMS_P1;PMS_P2;Temp;Humidity;BMP_temperature;BMP_pressure;BME280_temperature;BME280_humidity;BME280_pressure;Samples;Min_cycle;Max_cycle;Signal;HPM_P1;HPM_P2
2022/04/10 00:00:46;;;;;;;1.85;0.80;;;;;;;3.13;72.95;98427.88;5033584;28;20469;-54
2022/04/10 00:03:31;;;;;;;2.63;1.20;;;;;;;3.14;73.49;98440.75;5026534;28;20081;-53
2022/04/10 00:06:15;;;;;;;1.95;0.90;;;;;;;3.24;74.05;98448.13;5031632;28;20041;-50
2022/04/10 00:09:00;;;;;;;1.92;0.90;;;;;;;2.95;73.17;98436.34;5032139;28;20103;-53
2022/04/10 00:11:45;;;;;;;2.15;0.80;;;;;;;2.86;73.34;98441.94;5018551;28;20492;-53
2022/04/10 00:14:29;;;;;;;2.50;0.80;;;;;;;2.94;73.90;98449.38;5031633;28;20112;-52
2022/04/10 00:17:14;;;;;;;3.15;1.30;;;;;;;3.02;73.36;98443.88;5033565;28;20057;-51
2022/04/10 00:19:59;;;;;;;2.25;0.70;;;;;;;2.75;74.02;98446.72;5033144;28;20045;-54
2022/04/10 00:22:46;;;;;;;2.60;0.80;;;;;;;2.56;74.96;98440.53;5033268;28;20049;-54
2022/04/10 00:25:31;;;;;;;0.95;0.70;;;;;;;2.53;75.73;98429.50;5033074;28;20054;-50
2022/04/10 00:28:16;;;;;;;2.80;0.98;;;;;;;2.50;74.97;98432.22;5033150;28;20047;-53
2022/04/10 00:31:00;;;;;;;2.35;1.00;;;;;;;2.56;75.07;98439.72;5018023;28;20065;-54
2022/04/10 00:33:46;;;;;;;1.60;0.82;;;;;;;2.55;75.16;98428.53;5045764;28;20124;-55
2022/04/10 00:36:31;;;;;;;3.40;1.00;;;;;;;2.36;76.29;98432.75;5046306;28;20049;-52
2022/04/10 00:39:16;;;;;;;2.17;0.80;;;;;;;2.53;76.24;98430.31;5032692;28;20056;-53
2022/04/10 00:42:01;;;;;;;2.58;0.90;;;;;;;2.44;76.14;98435.88;5032152;28;20469;-53
2022/04/10 00:44:47;;;;;;;1.73;0.80;;;;;;;2.42;76.47;98441.13;5031978;28;20480;-54
2022/04/10 00:47:32;;;;;;;3.25;1.20;;;;;;;2.29;77.15;98452.84;5026217;28;20105;-50
2022/04/10 00:50:19;;;;;;;2.88;1.05;;;;;;;2.27;77.17;98434.81;5017597;28;20041;-53
2022/04/10 00:53:04;;;;;;;1.48;0.73;;;;;;;2.25;77.43;98441.81;5026021;28;20520;-49
2022/04/10 00:55:49;;;;;;;3.35;1.33;;;;;;;2.19;77.98;98458.38;5031358;28;20481;-53
2022/04/10 00:58:34;;;;;;;2.53;0.88;;;;;;;2.25;77.45;98448.72;5031481;28;20492;-52
2022/04/10 01:01:19;;;;;;;2.42;1.10;;;;;;;2.19;77.88;98437.69;5013616;28;20050;-53
2022/04/10 01:04:05;;;;;;;3.22;1.08;;;;;;;2.23;78.15;98448.78;5012753;28;20053;-55
2022/04/10 01:06:52;;;;;;;2.00;1.00;;;;;;;2.19;78.24;98448.03;5025276;28;20497;-53
2022/04/10 01:09:38;;;;;;;1.90;0.65;;;;;;;2.33;78.22;98444.09;5015822;28;20076;-50
2022/04/10 01:12:23;;;;;;;3.55;1.00;;;;;;;2.27;78.16;98457.25;5031952;28;20116;-53
2022/04/10 01:15:11;;;;;;;1.73;0.95;;;;;;;2.36;77.71;98451.72;5031269;28;20092;-53
2022/04/10 01:18:00;;;;;;;1.95;0.88;;;;;;;2.37;78.01;98443.03;5030663;28;20045;-54
2022/04/10 01:20:46;;;;;;;1.92;1.00;;;;;;;2.31;78.04;98449.31;5031181;28;20045;-52
2022/04/10 01:23:31;;;;;;;1.95;1.13;;;;;;;2.38;78.10;98462.84;5030728;28;20045;-51
2022/04/10 01:26:16;;;;;;;2.10;1.10;;;;;;;2.37;78.05;98471.47;5031110;28;20065;-51
2022/04/10 01:29:10;;;;;;;1.52;0.80;;;;;;;2.40;77.84;98471.34;5014450;28;20140;-50
2022/04/10 01:31:56;;;;;;;1.85;0.90;;;;;;;2.29;78.61;98470.94;5011194;28;20037;-56
2022/04/10 01:34:41;;;;;;;2.08;0.82;;;;;;;2.35;78.51;98475.88;5011151;28;20053;-51
2022/04/10 01:37:29;;;;;;;1.70;0.82;;;;;;;2.20;79.17;98482.50;5011566;28;20046;-54
2022/04/10 01:40:14;;;;;;;1.95;0.90;;;;;;;2.20;79.34;98485.09;5011142;28;20449;-54
2022/04/10 01:43:00;;;;;;;3.40;0.93;;;;;;;2.17;79.32;98475.69;4983705;28;20451;-55
2022/04/10 01:45:45;;;;;;;1.35;0.90;;;;;;;2.21;79.71;98486.75;5010737;28;20049;-55
2022/04/10 01:48:29;;;;;;;3.15;0.90;;;;;;;2.12;79.61;98481.94;5010911;28;20064;-53
2022/04/10 01:51:15;;;;;;;3.42;1.20;;;;;;;2.08;80.19;98483.81;5011870;28;20128;-53
2022/04/10 01:54:00;;;;;;;1.63;0.70;;;;;;;2.07;80.32;98490.69;5011734;28;20046;-52
2022/04/10 01:56:44;;;;;;;3.25;0.75;;;;;;;2.13;80.43;98496.53;4996877;28;20046;-53
2022/04/10 01:59:29;;;;;;;3.63;0.70;;;;;;;2.04;80.62;98500.34;5010778;28;20073;-52
2022/04/10 02:02:14;;;;;;;2.63;0.90;;;;;;;2.04;80.64;98495.16;4996770;28;20064;-51
2022/04/10 02:04:59;;;;;;;2.13;0.80;;;;;;;1.94;81.47;98490.31;4996625;28;20045;-51
2022/04/10 02:07:44;;;;;;;1.35;0.93;;;;;;;1.92;81.51;98519.72;5005952;28;20144;-52
2022/04/10 02:10:28;;;;;;;2.10;1.13;;;;;;;1.93;81.46;98498.13;5016316;28;20420;-53
2022/04/10 02:13:13;;;;;;;1.52;0.95;;;;;;;1.89;81.76;98517.25;4996941;28;20630;-50
2022/04/10 02:15:59;;;;;;;3.83;0.88;;;;;;;1.82;82.24;98525.22;5024208;28;20391;-53
2022/04/10 02:18:46;;;;;;;3.80;0.80;;;;;;;1.92;81.71;98520.56;5024495;28;20077;-54
2022/04/10 02:21:31;;;;;;;1.67;1.02;;;;;;;1.82;82.34;98522.66;5024380;28;20041;-54
2022/04/10 02:24:15;;;;;;;1.60;0.80;;;;;;;1.91;82.22;98531.78;5024369;28;20536;-53
2022/04/10 02:27:00;;;;;;;1.52;0.85;;;;;;;1.81;82.29;98530.44;5011605;28;20069;-55
2022/04/10 02:29:45;;;;;;;2.72;0.88;;;;;;;1.77;82.56;98529.72;5024339;28;20480;-55
2022/04/10 02:32:30;;;;;;;1.60;0.68;;;;;;;1.77;82.86;98527.13;5024723;28;20088;-53
2022/04/10 02:35:16;;;;;;;2.58;0.88;;;;;;;1.67;83.26;98534.38;5010180;28;20405;-53
2022/04/10 02:38:01;;;;;;;1.13;0.80;;;;;;;1.73;83.19;98541.03;5024112;28;20370;-52
2022/04/10 02:40:46;;;;;;;3.33;0.80;;;;;;;1.79;83.09;98529.66;5024345;28;20070;-54
2022/04/10 02:43:33;;;;;;;1.50;0.80;;;;;;;1.86;82.71;98535.44;5023991;28;20069;-51
2022/04/10 02:46:21;;;;;;;1.92;0.95;;;;;;;1.80;83.44;98533.91;5024298;28;20128;-52
2022/04/10 02:49:06;;;;;;;1.50;0.75;;;;;;;1.91;83.16;98542.13;5023862;28;20416;-53
2022/04/10 02:51:51;;;;;;;3.15;0.90;;;;;;;1.68;83.68;98543.78;5012830;28;20053;-54
2022/04/10 02:54:36;;;;;;;1.70;0.80;;;;;;;1.78;83.19;98543.47;5028127;28;20100;-53
2022/04/10 02:57:40;;;;;;;2.03;0.90;;;;;;;1.52;84.29;98542.66;5030851;28;20053;-54
2022/04/10 03:00:43;;;;;;;2.88;1.00;;;;;;;1.52;84.62;98545.25;5029522;28;20049;-53
2022/04/10 03:03:48;;;;;;;3.70;1.30;;;;;;;1.56;84.37;98554.56;5029792;28;20053;-51
2022/04/10 03:06:52;;;;;;;3.33;0.90;;;;;;;1.67;83.80;98549.88;5029922;28;20037;-54
2022/04/10 03:09:56;;;;;;;3.78;0.98;;;;;;;1.69;83.81;98562.72;5041155;28;20056;-53
2022/04/10 03:12:59;;;;;;;1.50;0.80;;;;;;;1.70;83.86;98569.56;5031104;28;20061;-53
2022/04/10 03:16:04;;;;;;;2.25;1.00;;;;;;;1.67;83.90;98572.25;5045090;28;20045;-53
2022/04/10 03:19:09;;;;;;;3.28;1.00;;;;;;;1.87;82.44;98571.56;5033630;28;20049;-53
2022/04/10 03:22:13;;;;;;;2.25;0.80;;;;;;;1.90;82.95;98574.03;5044917;28;20503;-55
2022/04/10 03:25:16;;;;;;;2.75;0.90;;;;;;;1.89;82.53;98577.53;5044629;28;20042;-55
2022/04/10 03:28:20;;;;;;;2.58;1.05;;;;;;;1.94;82.55;98578.19;5044788;28;20166;-52
2022/04/10 03:31:24;;;;;;;2.10;0.95;;;;;;;1.91;82.44;98582.66;5033306;28;20080;-52
2022/04/10 03:34:31;;;;;;;1.58;0.73;;;;;;;2.20;82.36;98591.06;5044531;28;20049;-51
2022/04/10 03:37:34;;;;;;;2.47;1.20;;;;;;;2.09;81.09;98591.44;5033132;28;20440;-53
2022/04/10 03:40:38;;;;;;;2.88;1.20;;;;;;;1.81;82.33;98589.88;5044797;28;20041;-54
2022/04/10 03:43:42;;;;;;;2.28;1.10;;;;;;;1.90;82.98;98602.47;5032962;28;20554;-54
2022/04/10 03:46:45;;;;;;;1.58;0.82;;;;;;;2.19;81.74;98600.56;5044721;28;20044;-54
2022/04/10 03:49:51;;;;;;;1.15;0.70;;;;;;;2.33;80.87;98607.78;5033042;28;20445;-52
2022/04/10 03:52:55;;;;;;;3.20;1.08;;;;;;;2.13;81.32;98618.03;5021893;28;20408;-52
2022/04/10 03:55:59;;;;;;;1.50;1.00;;;;;;;2.09;82.06;98614.72;5044323;28;20046;-55
2022/04/10 03:59:04;;;;;;;1.40;0.85;;;;;;;2.09;81.96;98615.56;5044197;28;20049;-50
2022/04/10 04:02:07;;;;;;;2.17;0.80;;;;;;;1.81;83.18;98610.53;5032801;28;20037;-55
2022/04/10 04:05:11;;;;;;;2.17;0.90;;;;;;;2.26;82.34;98627.03;5032723;28;20052;-52
2022/04/10 04:08:15;;;;;;;2.53;1.10;;;;;;;2.29;80.42;98626.06;5032641;28;20049;-54
2022/04/10 04:11:19;;;;;;;2.10;1.00;;;;;;;2.23;81.08;98629.72;5044298;28;20451;-50
2022/04/10 04:14:23;;;;;;;1.67;0.90;;;;;;;2.25;81.68;98635.69;5033029;28;20057;-52
2022/04/10 04:17:27;;;;;;;2.88;1.00;;;;;;;2.18;81.31;98636.81;5032595;28;20045;-49
2022/04/10 04:20:31;;;;;;;3.13;0.88;;;;;;;2.32;81.15;98639.72;5033537;28;20076;-53
2022/04/10 04:23:36;;;;;;;2.28;0.90;;;;;;;2.58;80.53;98644.81;5043267;28;20065;-54
2022/04/10 04:26:39;;;;;;;2.65;0.88;;;;;;;2.86;78.66;98653.31;5043708;28;20045;-56
2022/04/10 04:29:45;;;;;;;2.50;1.00;;;;;;;2.63;79.15;98667.97;5020805;28;20058;-55
2022/04/10 04:32:50;;;;;;;2.60;1.00;;;;;;;2.55;78.54;98670.81;5031945;28;20111;-52
2022/04/10 04:35:54;;;;;;;3.50;1.02;;;;;;;2.63;79.51;98665.38;5032072;28;20042;-55
2022/04/10 04:38:57;;;;;;;2.80;1.17;;;;;;;2.88;78.47;98661.84;5031851;28;20155;-53
2022/04/10 04:42:02;;;;;;;2.60;0.93;;;;;;;3.12;76.95;98667.81;5043620;28;20045;-53
2022/04/10 04:45:07;;;;;;;2.42;1.10;;;;;;;2.73;78.54;98682.22;5043322;28;20052;-53
2022/04/10 04:48:11;;;;;;;1.52;0.80;;;;;;;3.14;76.84;98683.28;5032013;28;20447;-54
2022/04/10 04:51:16;;;;;;;1.73;0.98;;;;;;;3.01;77.16;98681.19;5043306;28;20429;-53
2022/04/10 04:54:21;;;;;;;2.97;1.05;;;;;;;3.35;76.10;98691.09;5043172;28;20053;-52
2022/04/10 04:57:26;;;;;;;2.45;0.80;;;;;;;3.25;75.38;98691.47;5032330;28;20041;-54
2022/04/10 05:00:30;;;;;;;2.83;1.20;;;;;;;3.16;75.31;98691.84;5031597;28;20052;-54
2022/04/10 05:03:38;;;;;;;3.08;0.90;;;;;;;3.13;75.89;98698.00;5042823;28;20041;-53
2022/04/10 05:06:42;;;;;;;1.33;0.70;;;;;;;3.49;74.61;98695.75;5043013;28;20108;-51
2022/04/10 05:09:45;;;;;;;2.28;1.00;;;;;;;3.14;75.29;98706.56;5032333;28;20044;-53
2022/04/10 05:12:50;;;;;;;2.28;0.88;;;;;;;3.28;75.54;98693.94;5022846;28;20050;-54
2022/04/10 05:15:56;;;;;;;3.33;1.10;;;;;;;2.98;75.48;98698.56;5022904;28;20527;-54
2022/04/10 05:19:04;;;;;;;2.20;1.10;;;;;;;2.94;76.67;98705.59;5011736;28;20042;-54
2022/04/10 05:22:08;;;;;;;3.53;1.10;;;;;;;3.12;75.68;98711.81;5012758;28;20496;-52
2022/04/10 05:25:14;;;;;;;2.78;0.95;;;;;;;3.25;75.38;98725.13;5019396;28;20516;-53
2022/04/10 05:28:22;;;;;;;1.60;1.10;;;;;;;3.04;75.36;98719.03;5025378;28;20525;-52
2022/04/10 05:31:26;;;;;;;2.15;1.17;;;;;;;3.36;74.67;98718.69;5027065;28;20050;-52
2022/04/10 05:34:30;;;;;;;1.95;1.02;;;;;;;3.08;75.13;98725.78;5020842;28;20100;-53
2022/04/10 05:37:33;;;;;;;1.77;0.90;;;;;;;3.43;74.95;98728.75;5024340;28;20070;-52
2022/04/10 05:40:38;;;;;;;1.80;1.17;;;;;;;3.78;73.10;98738.59;5030423;28;20057;-51
2022/04/10 05:43:42;;;;;;;2.88;1.15;;;;;;;3.49;72.83;98734.59;5040997;28;20053;-50
2022/04/10 05:46:46;;;;;;;2.15;0.85;;;;;;;4.52;71.41;98741.56;5030955;28;20072;-52
2022/04/10 05:49:54;;;;;;;3.17;1.20;;;;;;;4.39;69.43;98736.06;5021219;28;20429;-55
2022/04/10 05:52:58;;;;;;;2.42;0.90;;;;;;;3.90;71.45;98747.59;5028974;28;20506;-52
2022/04/10 05:56:04;;;;;;;3.90;1.08;;;;;;;4.09;71.76;98754.63;5023107;28;20037;-53
2022/04/10 05:59:13;;;;;;;1.83;0.90;;;;;;;4.23;71.47;98754.03;5013917;28;20044;-56
2022/04/10 06:02:17;;;;;;;2.05;0.85;;;;;;;4.79;76.63;98755.97;5013686;28;20120;-57
2022/04/10 06:05:22;;;;;;;1.05;0.63;;;;;;;4.78;72.30;98752.53;5011075;28;20046;-51
2022/04/10 06:08:45;;;;;;;2.38;1.40;;;;;;;4.13;74.91;98745.81;5020103;28;20077;-52
2022/04/10 06:11:49;;;;;;;2.95;1.30;;;;;;;4.14;71.57;98752.69;5010796;28;20068;-55
2022/04/10 06:14:54;;;;;;;2.65;1.10;;;;;;;4.26;70.68;98746.13;5030265;28;20447;-53
2022/04/10 06:17:40;;;;;;;2.58;1.33;;;;;;;3.75;72.12;98749.09;5030135;28;20045;-60
2022/04/10 06:20:24;;;;;;;4.22;1.63;;;;;;;3.36;73.54;98749.78;5030247;28;20052;-61
2022/04/10 06:23:09;;;;;;;2.00;1.40;;;;;;;4.00;73.70;98745.47;5030426;28;20451;-60
2022/04/10 06:25:56;;;;;;;3.75;1.30;;;;;;;4.18;73.64;98753.38;5011984;28;20048;-62
2022/04/10 06:28:41;;;;;;;1.65;1.00;;;;;;;4.84;70.86;98756.63;5025089;28;20042;-60
2022/04/10 06:31:33;;;;;;;5.25;1.38;;;;;;;4.95;69.66;98766.50;5019978;28;20042;-61
2022/04/10 06:34:17;;;;;;;5.72;1.27;;;;;;;5.42;68.87;98766.97;5026871;28;20044;-63
2022/04/10 06:37:03;;;;;;;2.83;1.08;;;;;;;6.11;65.35;98758.50;5025170;28;20037;-68
2022/04/10 06:39:48;;;;;;;4.82;1.27;;;;;;;6.98;65.15;98761.03;5019973;28;20050;-67
2022/04/10 06:42:35;;;;;;;3.20;1.30;;;;;;;6.18;63.11;98761.66;5020032;28;20045;-67
2022/04/10 06:45:41;;;;;;;3.75;1.70;;;;;;;6.51;62.06;98760.84;5019827;28;20069;-63
2022/04/10 06:48:35;;;;;;;2.95;1.35;;;;;;;7.41;58.90;98768.25;5026735;28;20090;-69
2022/04/10 06:51:22;;;;;;;2.55;0.95;;;;;;;6.06;61.85;98763.94;5021774;28;20045;-64
2022/04/10 06:54:07;;;;;;;12.93;7.68;;;;;;;6.33;66.10;98758.28;5025347;28;20512;-67
2022/04/10 06:56:52;;;;;;;3.88;1.95;;;;;;;6.03;62.29;98764.94;5019622;28;20040;-67
2022/04/10 06:59:37;;;;;;;1.92;1.33;;;;;;;5.73;62.91;98770.69;5035160;28;20049;-68
2022/04/10 07:02:26;;;;;;;3.53;1.38;;;;;;;5.60;63.61;98761.84;5033660;28;20041;-67
2022/04/10 07:05:13;;;;;;;7.70;4.50;;;;;;;6.23;70.28;98765.72;5032828;28;20056;-65
2022/04/10 07:08:02;;;;;;;2.60;1.48;;;;;;;6.47;61.63;98770.59;5019633;28;20115;-64
2022/04/10 07:10:47;;;;;;;4.18;2.22;;;;;;;7.43;59.34;98776.84;5033006;28;20049;-62
2022/04/10 07:13:32;;;;;;;3.00;1.27;;;;;;;8.16;56.06;98771.06;5032707;28;20127;-65
2022/04/10 07:16:18;;;;;;;1.92;1.48;;;;;;;6.99;57.73;98775.72;5033095;28;20561;-71
2022/04/10 07:19:06;;;;;;;3.28;1.50;;;;;;;7.12;58.31;98775.91;5031695;28;20049;-63
2022/04/10 07:24:56;;;;;;;4.35;1.20;;;;;;;8.27;54.38;98771.28;5031451;28;20535;-69
2022/04/10 07:27:41;;;;;;;5.40;1.73;;;;;;;8.18;54.05;98769.19;5017834;28;20041;-70
2022/04/10 07:30:39;;;;;;;2.33;1.00;;;;;;;8.12;54.71;98770.38;5032408;28;20463;-73
2022/04/10 07:33:29;;;;;;;1.60;1.08;;;;;;;9.05;51.61;98763.19;5033365;28;20168;-72
2022/04/10 07:36:20;;;;;;;2.42;1.50;;;;;;;7.58;55.72;98767.31;5032911;28;20071;-69
2022/04/10 07:39:05;;;;;;;2.55;1.30;;;;;;;6.53;57.43;98765.06;5032686;28;20057;-69
2022/04/10 07:41:55;;;;;;;1.58;1.02;;;;;;;7.82;54.56;98771.22;5033138;28;20480;-68
2022/04/10 07:44:46;;;;;;;2.00;0.98;;;;;;;8.23;53.05;98760.16;5020183;28;20041;-68
2022/04/10 07:47:31;;;;;;;2.72;1.10;;;;;;;8.45;51.89;98782.41;5019254;28;20056;-68
2022/04/10 07:50:16;;;;;;;4.95;1.48;;;;;;;8.71;51.32;98776.56;5032958;28;20045;-70
2022/04/10 07:53:02;;;;;;;1.60;1.08;;;;;;;8.44;51.37;98774.63;5018871;28;20053;-69
2022/04/10 07:55:50;;;;;;;1.35;0.98;;;;;;;8.16;50.86;98771.88;5019430;28;20042;-67
2022/04/10 07:58:36;;;;;;;4.45;1.40;;;;;;;7.93;52.40;98781.06;5018383;28;20163;-66
2022/04/10 08:01:30;;;;;;;3.10;1.30;;;;;;;9.08;50.08;98782.13;5046531;28;20049;-71
2022/04/10 08:04:17;;;;;;;8.00;3.17;;;;;;;10.41;58.68;98773.66;5032476;28;20045;-53
2022/04/10 08:07:05;;;;;;;1.55;1.17;;;;;;;10.06;45.82;98789.94;5032175;28;20465;-49
2022/04/10 08:09:49;;;;;;;3.15;1.00;;;;;;;9.51;47.74;98790.84;5033123;28;20041;-48
2022/04/10 08:12:34;;;;;;;5.47;2.40;;;;;;;11.21;62.12;98795.31;5032922;28;20112;-54
2022/04/10 08:15:19;;;;;;;1.48;1.05;;;;;;;10.42;46.42;98801.53;5033000;28;20103;-45
2022/04/10 08:18:03;;;;;;;4.13;1.20;;;;;;;11.43;43.50;98796.41;5032904;28;20499;-46
2022/04/10 08:20:49;;;;;;;3.22;1.13;;;;;;;10.81;44.68;98803.34;5031760;28;20042;-45
2022/04/10 08:23:34;;;;;;;2.90;0.82;;;;;;;9.67;46.49;98801.16;5031955;28;20515;-45
2022/04/10 08:26:19;;;;;;;1.90;0.90;;;;;;;9.21;48.72;98816.19;5032978;28;20053;-45
2022/04/10 08:29:04;;;;;;;1.70;0.88;;;;;;;8.77;50.50;98815.38;5032752;28;20048;-48
2022/04/10 08:31:49;;;;;;;2.40;1.20;;;;;;;8.36;50.40;98815.09;5032942;28;20056;-46
2022/04/10 08:34:33;;;;;;;2.10;1.40;;;;;;;7.10;52.93;98815.06;5033111;28;20049;-48
2022/04/10 08:37:18;;;;;;;1.73;0.85;;;;;;;7.50;52.64;98817.28;5033154;28;20083;-46
2022/04/10 08:40:04;;;;;;;2.05;1.15;;;;;;;8.11;51.56;98821.72;5032746;28;20128;-46
2022/04/10 08:42:50;;;;;;;1.95;1.20;;;;;;;8.43;50.54;98817.34;5032971;28;20049;-47
2022/04/10 08:45:37;;;;;;;2.25;0.98;;;;;;;8.16;49.10;98831.91;5032582;28;20045;-47
2022/04/10 08:48:24;;;;;;;3.20;1.45;;;;;;;8.71;47.61;98828.81;5031636;28;20041;-48
2022/04/10 08:51:09;;;;;;;3.67;1.35;;;;;;;10.01;45.09;98826.03;5032596;28;20053;-47
2022/04/10 08:53:55;;;;;;;2.75;1.35;;;;;;;8.98;46.20;98828.91;5045500;28;20073;-46
2022/04/10 08:56:39;;;;;;;1.17;0.77;;;;;;;9.45;46.36;98826.03;5032567;28;20049;-50
2022/04/10 08:59:24;;;;;;;2.45;1.10;;;;;;;9.40;44.60;98825.47;5032780;28;20049;-47
2022/04/10 09:02:10;;;;;;;2.05;0.82;;;;;;;10.21;44.39;98824.75;5031264;28;20041;-47
2022/04/10 09:04:55;;;;;;;4.03;1.00;;;;;;;9.43;44.00;98811.41;5017609;28;20057;-46
2022/04/10 09:07:40;;;;;;;2.03;0.80;;;;;;;11.05;43.08;98821.75;5027418;28;20042;-47
2022/04/10 09:10:25;;;;;;;2.80;0.88;;;;;;;10.76;38.83;98815.91;5027387;28;20049;-46
2022/04/10 09:13:09;;;;;;;1.88;1.00;;;;;;;10.43;39.45;98818.09;5023674;28;20192;-46
2022/04/10 09:16:22;;;;;;;1.10;0.50;;;;;;;9.72;41.10;98824.38;5031597;28;20076;-47
2022/04/10 09:19:10;;;;;;;2.92;1.10;;;;;;;9.89;40.41;98825.91;5031979;28;20389;-45
2022/04/10 09:21:54;;;;;;;2.03;0.70;;;;;;;9.05;41.64;98828.53;5044903;28;20052;-45
2022/04/10 09:25:13;;;;;;;1.20;0.60;;;;;;;11.65;37.76;98828.94;5032420;28;20053;-45
2022/04/10 09:27:58;;;;;;;2.80;0.85;;;;;;;10.40;44.93;98813.88;5031534;28;20120;-45
2022/04/10 09:30:42;;;;;;;3.60;1.05;;;;;;;9.45;41.04;98807.72;5032193;28;20045;-47
2022/04/10 09:33:27;;;;;;;3.22;1.10;;;;;;;9.39;42.24;98833.44;5030909;28;20092;-49
2022/04/10 09:36:11;;;;;;;11.65;1.15;;;;;;;11.10;43.78;98845.03;5030801;28;20049;-48
2022/04/10 09:38:56;;;;;;;2.05;1.08;;;;;;;9.65;40.21;98839.63;5031856;28;20069;-45
2022/04/10 09:41:44;;;;;;;1.33;0.85;;;;;;;11.16;38.31;98830.69;5030226;28;20533;-46
2022/04/10 09:44:32;;;;;;;2.60;0.80;;;;;;;12.73;35.74;98817.66;5028546;28;20046;-49
2022/04/10 09:47:17;;;;;;;2.72;1.27;;;;;;;11.67;36.85;98823.63;5012803;28;20547;-47
2022/04/10 09:50:05;;;;;;;1.33;1.00;;;;;;;11.02;38.09;98826.38;5011929;28;20057;-48
2022/04/10 09:52:50;;;;;;;3.45;1.48;;;;;;;12.19;36.66;98818.97;5012054;28;20045;-45
2022/04/10 09:55:37;;;;;;;2.63;1.15;;;;;;;13.15;35.55;98811.81;5012767;28;20046;-52
2022/04/10 09:58:22;;;;;;;2.53;0.98;;;;;;;13.05;34.71;98802.00;5011893;28;20041;-47
2022/04/10 10:01:11;;;;;;;1.50;0.80;;;;;;;13.28;34.21;98811.66;5010487;28;20049;-53
2022/04/10 10:03:57;;;;;;;2.58;1.05;;;;;;;11.40;35.09;98801.03;5011043;28;20045;-52
2022/04/10 10:06:43;;;;;;;2.05;0.80;;;;;;;12.26;34.20;98800.09;5011469;28;20045;-55
2022/04/10 10:09:31;;;;;;;1.65;0.90;;;;;;;12.77;32.23;98803.31;5010564;28;20042;-51
2022/04/10 10:12:17;;;;;;;2.67;0.80;;;;;;;12.29;31.99;98805.16;5012805;28;20049;-50
2022/04/10 10:15:01;;;;;;;2.42;1.10;;;;;;;12.49;31.75;98808.03;5013768;28;20053;-48
2022/04/10 10:17:46;;;;;;;4.05;1.05;;;;;;;12.40;31.89;98794.66;5010930;28;20050;-51
2022/04/10 10:20:32;;;;;;;3.88;1.10;;;;;;;11.76;33.10;98803.72;5010310;28;20053;-50
2022/04/10 10:23:19;;;;;;;2.75;1.42;;;;;;;10.68;34.20;98804.19;5009638;28;20049;-52
2022/04/10 10:26:13;;;;;;;1.75;0.80;;;;;;;12.28;32.23;98795.59;5011202;28;20057;-48
2022/04/10 10:29:29;;;;;;;2.33;0.90;;;;;;;13.04;30.76;98786.34;5011265;28;20046;-50
2022/04/10 10:32:22;;;;;;;3.50;1.20;;;;;;;11.15;33.28;98797.50;5012762;28;20120;-52
2022/04/10 10:35:28;;;;;;;4.88;1.08;;;;;;;10.08;35.30;98794.16;5031187;28;20045;-49
2022/04/10 10:38:23;;;;;;;0.90;0.60;;;;;;;10.69;35.32;98799.78;5029211;28;20050;-49
2022/04/10 10:41:11;;;;;;;1.38;0.80;;;;;;;9.73;36.04;98807.75;5030111;28;20042;-51
2022/04/10 10:43:56;;;;;;;3.47;1.10;;;;;;;9.51;37.11;98813.53;5030973;28;20053;-48
2022/04/10 10:47:00;;;;;;;3.25;1.17;;;;;;;8.86;38.24;98833.09;5015433;28;20073;-46
2022/04/10 10:49:47;;;;;;;2.45;0.85;;;;;;;8.10;42.46;98835.72;5016105;28;20452;-47
2022/04/10 10:52:40;;;;;;;2.72;1.00;;;;;;;7.57;46.07;98840.41;5005019;28;20061;-49
2022/04/10 10:55:43;;;;;;;1.98;1.10;;;;;;;7.67;46.45;98849.41;5017089;28;20048;-50
2022/04/10 10:58:32;;;;;;;1.80;1.00;;;;;;;8.74;45.42;98828.59;5010503;28;20038;-46
2022/04/10 11:01:23;;;;;;;1.88;1.08;;;;;;;10.53;44.89;98839.28;5015531;28;20049;-38
2022/04/10 11:04:09;;;;;;;2.30;1.05;;;;;;;10.54;39.92;98822.63;5011935;28;20044;-47
2022/04/10 11:06:54;;;;;;;3.38;0.98;;;;;;;10.55;38.93;98796.31;5021135;28;20111;-49
2022/04/10 11:10:10;;;;;;;3.00;1.15;;;;;;;9.64;41.40;98811.81;5024421;28;20041;-46
2022/04/10 11:13:00;;;;;;;5.00;1.90;;;;;;;9.70;39.81;98803.56;5023022;28;20053;-49
2022/04/10 11:15:47;;;;;;;2.28;1.17;;;;;;;11.03;36.05;98784.31;5022273;28;20525;-50
2022/04/10 11:18:35;;;;;;;1.52;1.10;;;;;;;11.59;35.84;98792.66;5014415;28;20441;-46
2022/04/10 11:21:21;;;;;;;3.28;1.60;;;;;;;10.14;37.71;98786.81;5010572;28;20493;-49
2022/04/10 11:24:08;;;;;;;3.30;1.40;;;;;;;10.98;36.30;98780.38;5010852;28;20053;-48
2022/04/10 11:26:53;;;;;;;2.85;1.35;;;;;;;11.57;35.40;98781.47;5010626;28;20382;-46
2022/04/10 11:29:41;;;;;;;2.25;1.40;;;;;;;12.10;34.64;98790.78;5010615;28;20113;-46
2022/04/10 11:32:40;;;;;;;3.20;1.38;;;;;;;13.62;33.01;98790.56;5010029;28;20045;-48
2022/04/10 11:35:29;;;;;;;4.45;1.58;;;;;;;13.74;32.91;98793.19;5013992;28;20041;-46
2022/04/10 11:38:18;;;;;;;3.67;1.23;;;;;;;14.21;32.28;98790.22;5017877;28;20493;-46
2022/04/10 11:41:03;;;;;;;2.85;1.55;;;;;;;13.24;33.01;98789.19;5046698;28;20048;-48
2022/04/10 11:43:48;;;;;;;4.00;1.63;;;;;;;13.86;31.72;98773.72;5032815;28;20191;-46
2022/04/10 11:46:32;;;;;;;2.22;1.35;;;;;;;13.32;32.49;98783.34;5047091;28;20064;-50
2022/04/10 11:49:18;;;;;;;3.35;1.48;;;;;;;12.82;32.43;98782.75;5046261;28;20053;-44
2022/04/10 11:52:05;;;;;;;2.30;1.23;;;;;;;10.62;36.76;98791.50;5033448;28;20080;-47
2022/04/10 11:54:51;;;;;;;3.20;1.35;;;;;;;10.42;37.30;98795.44;5033834;28;20052;-47
2022/04/10 11:57:39;;;;;;;4.93;1.50;;;;;;;9.90;36.30;98792.72;5032580;28;20068;-47
2022/04/10 12:00:24;;;;;;;4.15;1.38;;;;;;;9.81;38.77;98791.56;5032915;28;20103;-45
2022/04/10 12:03:09;;;;;;;3.60;1.20;;;;;;;10.49;38.79;98796.75;5032753;28;20428;-45
2022/04/10 12:05:55;;;;;;;2.30;1.30;;;;;;;10.04;39.83;98791.81;5033854;28;20076;-51
2022/04/10 12:08:40;;;;;;;4.15;1.52;;;;;;;9.78;41.55;98804.81;5033476;28;20060;-48
2022/04/10 12:11:41;;;;;;;4.43;1.40;;;;;;;9.12;40.78;98793.25;5032494;28;20045;-45
2022/04/10 12:14:25;;;;;;;2.45;1.40;;;;;;;8.21;42.25;98795.13;5033026;28;20201;-47
2022/04/10 12:17:17;;;;;;;3.53;1.30;;;;;;;8.59;41.83;98812.94;5033377;28;20037;-46
2022/04/10 12:20:03;;;;;;;2.10;1.35;;;;;;;7.76;43.45;98814.16;5033074;28;20065;-46
2022/04/10 12:22:48;;;;;;;3.45;1.58;;;;;;;7.95;43.38;98815.72;5032586;28;20057;-48
2022/04/10 12:25:34;;;;;;;3.70;1.40;;;;;;;7.66;43.75;98832.06;5033090;28;20045;-48
2022/04/10 12:28:20;;;;;;;2.90;1.30;;;;;;;7.68;43.27;98835.44;5023268;28;20098;-50
2022/04/10 12:31:05;;;;;;;3.00;1.35;;;;;;;7.29;44.66;98818.44;5022649;28;20120;-51
2022/04/10 12:33:50;;;;;;;1.77;1.27;;;;;;;7.14;49.54;98829.63;5017633;28;20045;-47
2022/04/10 12:36:44;;;;;;;2.42;1.75;;;;;;;7.13;52.41;98840.13;5028211;28;20045;-48
2022/04/10 12:39:29;;;;;;;3.85;1.67;;;;;;;6.98;54.79;98837.41;5016626;28;20050;-47
2022/04/10 12:42:22;;;;;;;4.13;2.22;;;;;;;7.03;55.85;98834.56;5020177;28;20037;-50
2022/04/10 12:45:10;;;;;;;5.53;1.90;;;;;;;6.94;54.46;98833.28;5017254;28;21423;-46
2022/04/10 12:47:54;;;;;;;2.17;1.63;;;;;;;7.27;52.84;98827.19;5026933;28;20112;-47
2022/04/10 12:50:39;;;;;;;3.78;1.60;;;;;;;7.99;50.08;98831.13;5029075;28;20045;-48
2022/04/10 12:53:26;;;;;;;1.50;1.30;;;;;;;8.98;47.79;98821.06;5018543;28;20053;-46
2022/04/10 12:56:22;;;;;;;3.50;1.30;;;;;;;9.04;47.18;98832.06;5036813;28;20052;-48
2022/04/10 12:59:06;;;;;;;2.10;1.00;;;;;;;7.84;47.60;98829.34;5031442;28;20045;-51
2022/04/10 13:01:52;;;;;;;2.63;1.40;;;;;;;7.34;49.98;98826.88;5024556;28;20519;-48
2022/04/10 13:04:37;;;;;;;3.60;1.52;;;;;;;7.66;49.78;98820.78;5015295;28;20107;-45
2022/04/10 13:07:26;;;;;;;2.53;1.85;;;;;;;7.43;51.08;98815.94;5028710;28;20045;-52
2022/04/10 13:10:11;;;;;;;3.25;1.70;;;;;;;7.34;52.03;98816.44;5030658;28;20044;-48
2022/04/10 13:13:08;;;;;;;2.92;1.38;;;;;;;8.66;49.23;98810.78;5028171;28;20139;-48
2022/04/10 13:15:56;;;;;;;2.90;1.73;;;;;;;10.06;45.81;98811.72;5030214;28;20045;-47
2022/04/10 13:18:41;;;;;;;2.95;1.70;;;;;;;11.28;42.58;98806.19;5013164;28;20045;-44
2022/04/10 13:21:25;;;;;;;4.38;1.63;;;;;;;11.34;42.90;98803.13;5011027;28;20133;-50
2022/04/10 13:24:11;;;;;;;3.45;1.83;;;;;;;9.64;45.29;98805.72;5011756;28;20485;-47
2022/04/10 13:26:56;;;;;;;3.72;1.88;;;;;;;9.92;46.77;98810.00;5037798;28;20053;-49
2022/04/10 13:29:41;;;;;;;2.92;2.17;;;;;;;9.38;46.91;98805.59;5032088;28;20037;-50
2022/04/10 13:32:26;;;;;;;2.65;1.50;;;;;;;9.83;45.24;98815.84;5031866;28;20045;-49
2022/04/10 13:35:11;;;;;;;3.30;1.80;;;;;;;9.06;44.88;98811.91;5031912;28;20069;-50